createdAt,value
2022-12-09T00:01:26.887Z,14.20
2022-12-09T00:03:55.603Z,15.93
2022-12-09T00:06:28.112Z,15.77
2022-12-09T00:08:56.058Z,16.77
2022-12-09T00:11:23.907Z,14.77
2022-12-09T00:13:56.372Z,15.90
2022-12-09T00:16:23.902Z,16.20
2022-12-09T00:18:51.558Z,17.57
2022-12-09T00:21:25.307Z,18.30
2022-12-09T00:23:53.687Z,16.53
2022-12-09T00:26:22.354Z,15.17
2022-12-09T00:28:50.435Z,16.10
2022-12-09T00:31:24.418Z,15.63
2022-12-09T00:33:52.726Z,17.33
2022-12-09T00:36:24.298Z,17.23
2022-12-09T00:38:51.175Z,15.73
2022-12-09T00:41:21.050Z,18.20
2022-12-09T00:43:47.693Z,18.10
2022-12-09T00:46:17.973Z,18.70
2022-12-09T00:48:48.288Z,18.90
2022-12-09T00:51:20.401Z,17.40
2022-12-09T00:53:47.565Z,17.25
2022-12-09T00:56:14.650Z,17.93
2022-12-09T00:58:41.105Z,20.17
2022-12-09T01:01:07.867Z,18.87
2022-12-09T01:03:34.661Z,18.87
2022-12-09T01:06:01.478Z,18.53
2022-12-09T01:08:28.098Z,16.77
2022-12-09T01:10:55.057Z,16.43
2022-12-09T01:13:22.161Z,15.73
2022-12-09T01:15:48.919Z,16.10
2022-12-09T01:18:15.436Z,16.73
2022-12-09T01:20:42.360Z,16.13
2022-12-09T01:23:08.727Z,15.93
2022-12-09T01:25:37.515Z,16.43
2022-12-09T01:28:04.289Z,15.30
2022-12-09T01:30:30.832Z,15.60
2022-12-09T01:32:57.534Z,15.20
2022-12-09T01:35:24.174Z,14.80
2022-12-09T01:37:50.736Z,15.47
2022-12-09T01:40:19.097Z,15.70
2022-12-09T01:42:45.925Z,15.70
2022-12-09T01:45:30.380Z,15.30
2022-12-09T01:48:03.214Z,15.73
2022-12-09T01:50:31.264Z,15.97
2022-12-09T01:52:58.130Z,16.03
2022-12-09T01:55:25.515Z,16.73
2022-12-09T01:57:52.990Z,14.63
2022-12-09T02:00:20.915Z,16.07
2022-12-09T02:02:49.654Z,16.13
2022-12-09T02:05:16.701Z,16.80
2022-12-09T02:07:45.572Z,17.47
2022-12-09T02:10:16.172Z,19.37
2022-12-09T02:13:17.874Z,18.30
2022-12-09T02:16:07.794Z,18.70
2022-12-09T02:18:50.945Z,19.93
2022-12-09T02:21:36.988Z,19.00
2022-12-09T02:24:11.634Z,18.43
2022-12-09T02:26:48.489Z,19.23
2022-12-09T02:29:24.037Z,19.47
2022-12-09T02:32:09.897Z,19.63
2022-12-09T02:34:44.237Z,20.60
2022-12-09T02:37:22.789Z,20.13
2022-12-09T02:40:13.145Z,19.40
2022-12-09T02:42:41.265Z,20.87
2022-12-09T02:45:11.233Z,18.93
2022-12-09T02:47:42.493Z,19.37
2022-12-09T02:50:13.347Z,21.47
2022-12-09T02:52:42.303Z,18.80
2022-12-09T02:55:11.036Z,17.17
2022-12-09T02:57:39.356Z,18.23
2022-12-09T03:00:07.988Z,19.50
2022-12-09T03:02:41.149Z,17.83
2022-12-09T03:05:21.493Z,20.83
2022-12-09T03:08:07.015Z,19.40
2022-12-09T03:10:51.726Z,20.83
2022-12-09T03:13:35.273Z,18.97
2022-12-09T03:16:10.183Z,18.83
2022-12-09T03:18:39.237Z,20.13
2022-12-09T03:21:12.620Z,17.47
2022-12-09T03:23:39.333Z,18.43
2022-12-09T03:26:06.795Z,18.67
2022-12-09T03:28:42.392Z,17.53
2022-12-09T03:31:15.064Z,17.50
2022-12-09T03:33:44.598Z,18.63
2022-12-09T03:36:14.187Z,19.27
2022-12-09T03:38:43.363Z,18.27
2022-12-09T03:41:19.127Z,18.43
2022-12-09T03:43:56.106Z,18.30
2022-12-09T03:46:23.877Z,16.77
2022-12-09T03:48:52.073Z,17.70
2022-12-09T03:51:34.612Z,17.17
2022-12-09T03:56:39.193Z,18.20
2022-12-09T03:59:14.845Z,18.30
2022-12-09T04:01:43.959Z,18.73
2022-12-09T04:04:11.486Z,16.53
2022-12-09T04:06:38.484Z,19.17
2022-12-09T04:09:06.703Z,17.57
2022-12-09T04:11:34.273Z,18.77
2022-12-09T04:14:01.092Z,16.83
2022-12-09T04:16:28.081Z,19.53
2022-12-09T04:18:54.770Z,16.67
2022-12-09T04:21:21.946Z,17.83
2022-12-09T04:23:48.631Z,17.87
2022-12-09T04:26:17.662Z,19.33
2022-12-09T04:28:47.226Z,18.67
2022-12-09T04:31:15.372Z,17.00
2022-12-09T04:33:43.576Z,18.67
2022-12-09T04:36:13.062Z,19.73
2022-12-09T04:38:40.448Z,18.37
2022-12-09T04:41:07.817Z,16.80
2022-12-09T04:43:35.042Z,17.57
2022-12-09T04:46:04.674Z,19.40
2022-12-09T04:48:31.738Z,17.80
2022-12-09T04:50:59.360Z,17.57
2022-12-09T04:53:26.995Z,17.87
2022-12-09T04:56:22.271Z,19.37
2022-12-09T04:58:50.124Z,15.83
2022-12-09T05:01:28.179Z,17.40
2022-12-09T05:03:56.864Z,18.40
2022-12-09T05:06:23.773Z,17.03
2022-12-09T05:08:54.070Z,17.80
2022-12-09T05:11:21.231Z,19.87
2022-12-09T05:13:48.627Z,16.80
2022-12-09T05:16:17.939Z,18.03
2022-12-09T05:18:49.248Z,17.27
2022-12-09T05:21:20.039Z,17.63
2022-12-09T05:23:47.847Z,15.97
2022-12-09T05:26:20.640Z,17.43
2022-12-09T05:28:47.651Z,17.23
2022-12-09T05:31:17.157Z,14.97
2022-12-09T05:33:47.843Z,20.03
2022-12-09T05:36:17.724Z,16.87
2022-12-09T05:38:45.166Z,17.73
2022-12-09T05:41:12.681Z,15.63
2022-12-09T05:43:39.558Z,17.23
2022-12-09T05:46:07.137Z,16.43
2022-12-09T05:48:34.721Z,15.73
2022-12-09T05:51:16.048Z,18.00
2022-12-09T05:53:43.293Z,16.17
2022-12-09T05:56:10.118Z,18.50
2022-12-09T05:58:43.212Z,16.10
2022-12-09T06:01:12.092Z,19.27
2022-12-09T06:03:39.794Z,16.13
2022-12-09T06:06:12.573Z,18.10
2022-12-09T06:08:40.141Z,15.97
2022-12-09T06:11:12.669Z,15.53
2022-12-09T06:13:39.445Z,15.00
2022-12-09T06:16:07.089Z,17.47
2022-12-09T06:18:34.539Z,16.63
2022-12-09T06:21:06.222Z,15.93
2022-12-09T06:23:33.873Z,15.32
2022-12-09T06:26:00.286Z,17.37
2022-12-09T06:28:27.346Z,16.57
2022-12-09T06:30:53.980Z,17.00
2022-12-09T06:33:53.108Z,15.57
2022-12-09T06:36:13.198Z,15.90
2022-12-09T06:38:39.984Z,15.87
2022-12-09T06:41:11.708Z,17.23
2022-12-09T06:43:38.885Z,16.50
2022-12-09T06:46:17.136Z,16.07
2022-12-09T06:48:46.500Z,16.33
2022-12-09T06:51:14.332Z,17.70
2022-12-09T06:53:41.008Z,17.30
2022-12-09T06:56:12.090Z,17.57
2022-12-09T06:58:41.316Z,16.63
2022-12-09T07:01:17.455Z,15.87
2022-12-09T07:03:49.389Z,15.47
2022-12-09T07:06:38.609Z,15.38
2022-12-09T07:09:08.332Z,13.80
2022-12-09T07:11:35.932Z,15.17
2022-12-09T07:14:02.956Z,14.40
2022-12-09T07:16:30.465Z,15.23
2022-12-09T07:18:57.357Z,16.10
2022-12-09T07:21:24.772Z,15.83
2022-12-09T07:23:52.778Z,15.87
2022-12-09T07:26:20.703Z,15.90
2022-12-09T07:28:48.796Z,15.37
2022-12-09T07:31:24.999Z,15.43
2022-12-09T07:33:53.549Z,15.37
2022-12-09T07:36:22.361Z,16.70
2022-12-09T07:38:54.549Z,15.57
2022-12-09T07:41:21.757Z,16.33
2022-12-09T07:43:48.950Z,16.87
2022-12-09T07:46:17.600Z,16.63
2022-12-09T07:48:45.068Z,15.60
2022-12-09T07:51:12.079Z,15.73
2022-12-09T07:53:39.322Z,16.53
2022-12-09T07:56:09.405Z,16.47
2022-12-09T07:58:36.385Z,16.67
2022-12-09T08:01:12.818Z,18.50
2022-12-09T08:03:44.355Z,18.30
2022-12-09T08:06:14.044Z,19.17
2022-12-09T08:08:41.167Z,19.57
2022-12-09T08:11:10.325Z,18.40
2022-12-09T08:13:37.319Z,18.53
2022-12-09T08:16:06.064Z,16.83
2022-12-09T08:18:46.631Z,19.27
2022-12-09T08:21:16.762Z,19.63
2022-12-09T08:23:44.144Z,21.23
2022-12-09T08:26:12.775Z,21.33
2022-12-09T08:28:41.236Z,20.50
2022-12-09T08:31:14.499Z,18.87
2022-12-09T08:34:05.410Z,19.63
2022-12-09T08:39:21.452Z,21.43
2022-12-09T08:41:48.460Z,22.37
2022-12-09T08:44:23.422Z,18.63
2022-12-09T08:46:55.311Z,20.47
2022-12-09T08:49:27.511Z,20.95
2022-12-09T08:54:26.862Z,19.83
2022-12-09T08:57:02.353Z,21.73
2022-12-09T08:59:32.333Z,22.83
2022-12-09T09:02:02.956Z,21.83
2022-12-09T09:04:31.758Z,24.87
2022-12-09T09:07:00.384Z,22.10
2022-12-09T09:09:27.538Z,21.93
2022-12-09T09:11:54.674Z,24.37
2022-12-09T09:14:21.372Z,24.67
2022-12-09T09:16:48.437Z,24.00
2022-12-09T09:19:21.858Z,24.70
2022-12-09T09:21:49.897Z,23.67
2022-12-09T09:24:19.036Z,27.27
2022-12-09T09:26:47.660Z,25.40
2022-12-09T09:29:16.716Z,25.13
2022-12-09T09:31:44.084Z,24.98
2022-12-09T09:34:13.469Z,25.65
2022-12-09T09:36:41.257Z,24.52
2022-12-09T09:39:09.753Z,23.02
2022-12-09T09:41:42.639Z,24.13
2022-12-09T09:44:23.999Z,22.98
2022-12-09T09:46:54.747Z,19.90
2022-12-09T09:49:36.478Z,22.05
2022-12-09T09:54:58.682Z,24.43
2022-12-09T09:58:10.535Z,24.77
2022-12-09T10:01:04.262Z,23.27
2022-12-09T10:03:56.580Z,20.47
2022-12-09T10:06:32.233Z,19.42
2022-12-09T10:09:02.591Z,24.10
2022-12-09T10:11:37.470Z,24.47
2022-12-09T10:14:22.280Z,24.47
2022-12-09T10:17:04.619Z,24.63
2022-12-09T10:19:47.675Z,21.58
2022-12-09T10:22:22.180Z,24.53
2022-12-09T10:25:23.085Z,24.30
2022-12-09T10:28:04.956Z,22.60
2022-12-09T10:30:37.312Z,24.27
2022-12-09T10:33:14.802Z,21.23
2022-12-09T10:35:42.474Z,24.00
2022-12-09T10:38:19.722Z,27.07
2022-12-09T10:40:46.923Z,25.33
2022-12-09T10:43:35.587Z,25.33
2022-12-09T10:46:21.937Z,25.70
2022-12-09T10:48:50.407Z,25.17
2022-12-09T10:51:22.904Z,25.10
2022-12-09T10:54:11.669Z,22.40
2022-12-09T10:57:01.533Z,23.90
2022-12-09T10:59:30.670Z,20.80
2022-12-09T11:02:19.537Z,17.93
2022-12-09T11:04:48.217Z,23.03
2022-12-09T11:07:23.943Z,23.27
2022-12-09T11:10:04.417Z,23.63
2022-12-09T11:12:41.234Z,26.67
2022-12-09T11:15:47.105Z,22.90
2022-12-09T11:18:22.394Z,27.57
2022-12-09T11:20:58.930Z,21.80
2022-12-09T11:23:27.242Z,23.53
2022-12-09T11:25:59.351Z,24.63
2022-12-09T11:28:31.110Z,23.73
2022-12-09T11:31:28.368Z,23.77
2022-12-09T11:33:58.093Z,23.07
2022-12-09T11:36:31.003Z,20.48
2022-12-09T11:39:26.371Z,22.43
2022-12-09T11:42:17.644Z,22.67
2022-12-09T11:44:57.181Z,22.67
2022-12-09T11:48:24.144Z,21.23
2022-12-09T11:50:42.323Z,21.90
2022-12-09T11:53:26.024Z,24.55
2022-12-09T11:56:05.653Z,22.40
2022-12-09T11:58:44.597Z,24.40
2022-12-09T12:01:48.761Z,23.33
2022-12-09T12:04:20.323Z,19.63
2022-12-09T12:06:56.993Z,18.55
2022-12-09T12:09:45.244Z,19.13
2022-12-09T12:12:22.371Z,18.63
2022-12-09T12:14:48.775Z,22.27
2022-12-09T12:17:18.156Z,19.33
2022-12-09T12:19:50.178Z,21.93
2022-12-09T12:22:34.762Z,20.92
2022-12-09T12:25:21.408Z,19.57
2022-12-09T12:28:00.302Z,20.27
2022-12-09T12:31:10.568Z,21.50
2022-12-09T12:34:23.087Z,16.17
2022-12-09T12:36:59.170Z,16.67
2022-12-09T12:39:56.843Z,20.63
2022-12-09T12:42:42.430Z,22.90
2022-12-09T12:45:54.821Z,22.80
2022-12-09T12:48:32.861Z,23.77
2022-12-09T12:51:19.889Z,21.30
2022-12-09T12:54:04.547Z,19.93
2022-12-09T12:56:40.088Z,21.67
2022-12-09T12:59:18.879Z,23.20
2022-12-09T13:01:53.339Z,22.47
2022-12-09T13:04:40.244Z,22.40
2022-12-09T13:07:33.602Z,21.97
2022-12-09T13:10:03.881Z,22.17
2022-12-09T13:12:54.276Z,23.50
2022-12-09T13:15:39.356Z,21.03
2022-12-09T13:18:16.879Z,20.20
2022-12-09T13:20:46.081Z,19.37
2022-12-09T13:23:43.714Z,20.33
2022-12-09T13:26:40.833Z,16.87
2022-12-09T13:29:17.773Z,21.37
2022-12-09T13:32:10.000Z,20.57
2022-12-09T13:34:38.760Z,21.85
2022-12-09T13:37:30.768Z,23.07
2022-12-09T13:39:58.730Z,22.85
2022-12-09T13:42:47.576Z,20.43
2022-12-09T13:45:35.672Z,22.77
2022-12-09T13:48:25.811Z,22.57
2022-12-09T13:50:54.171Z,22.63
2022-12-09T13:53:21.234Z,24.10
2022-12-09T13:56:01.039Z,21.63
2022-12-09T13:59:05.550Z,19.17
2022-12-09T14:01:49.649Z,22.37
2022-12-09T14:04:22.978Z,20.63
2022-12-09T14:06:54.284Z,23.43
2022-12-09T14:09:39.601Z,21.37
2022-12-09T14:12:10.709Z,22.33
2022-12-09T14:14:43.777Z,22.43
2022-12-09T14:17:20.881Z,18.73
2022-12-09T14:19:50.276Z,22.73
2022-12-09T14:22:16.955Z,20.80
2022-12-09T14:24:50.626Z,19.43
2022-12-09T14:27:28.490Z,20.90
2022-12-09T14:30:22.478Z,21.33
2022-12-09T14:32:57.021Z,19.37
2022-12-09T14:35:43.782Z,16.17
2022-12-09T14:38:54.455Z,21.43
2022-12-09T14:41:33.422Z,19.87
2022-12-09T14:44:08.914Z,19.73
2022-12-09T14:46:41.512Z,20.87
2022-12-09T14:49:18.956Z,18.60
2022-12-09T14:51:55.756Z,20.77
2022-12-09T14:54:27.863Z,19.63
2022-12-09T14:56:57.911Z,22.42
2022-12-09T14:59:26.659Z,21.93
2022-12-09T15:02:01.226Z,23.07
2022-12-09T15:04:35.908Z,22.43
2022-12-09T15:07:26.598Z,23.77
2022-12-09T15:10:04.688Z,23.30
2022-12-09T15:12:40.327Z,22.77
2022-12-09T15:15:15.488Z,25.77
2022-12-09T15:17:46.262Z,25.83
2022-12-09T15:20:33.683Z,24.20
2022-12-09T15:23:20.807Z,25.10
2022-12-09T15:25:53.290Z,21.30
2022-12-09T15:28:26.249Z,21.80
2022-12-09T15:31:14.427Z,22.13
2022-12-09T15:33:44.182Z,22.37
2022-12-09T15:36:18.624Z,23.00
2022-12-09T15:39:11.205Z,21.70
2022-12-09T15:42:02.202Z,23.45
2022-12-09T15:44:36.401Z,23.67
2022-12-09T15:47:10.510Z,25.70
2022-12-09T15:49:45.651Z,30.27
2022-12-09T15:52:14.394Z,28.10
2022-12-09T15:54:43.520Z,28.87
2022-12-09T15:57:13.684Z,25.53
2022-12-09T15:59:43.229Z,26.03
2022-12-09T16:02:20.902Z,25.70
2022-12-09T16:04:50.277Z,26.90
2022-12-09T16:07:20.019Z,27.57
2022-12-09T16:10:04.602Z,24.97
2022-12-09T16:12:35.365Z,28.07
2022-12-09T16:15:04.860Z,26.50
2022-12-09T16:17:35.535Z,26.20
2022-12-09T16:20:31.726Z,22.83
2022-12-09T16:23:00.710Z,28.00
2022-12-09T16:25:29.795Z,27.87
2022-12-09T16:28:02.158Z,31.43
2022-12-09T16:30:32.462Z,29.88
2022-12-09T16:33:01.102Z,28.53
2022-12-09T16:35:45.287Z,30.37
2022-12-09T16:38:11.597Z,27.77
2022-12-09T16:40:44.259Z,30.93
2022-12-09T16:43:16.550Z,27.93
2022-12-09T16:48:21.131Z,30.50
2022-12-09T16:51:11.371Z,29.47
2022-12-09T16:53:43.509Z,30.23
2022-12-09T16:56:19.070Z,28.40
2022-12-09T16:58:45.485Z,26.83
2022-12-09T17:01:14.336Z,26.93
2022-12-09T17:03:48.065Z,23.77
2022-12-09T17:06:17.079Z,27.33
2022-12-09T17:08:44.064Z,27.90
2022-12-09T17:11:11.333Z,24.73
2022-12-09T17:13:38.502Z,22.50
2022-12-09T17:16:06.501Z,28.70
2022-12-09T17:18:36.672Z,26.47
2022-12-09T17:21:13.978Z,30.83
2022-12-09T17:23:40.945Z,27.60
2022-12-09T17:26:10.510Z,28.93
2022-12-09T17:28:38.197Z,25.70
2022-12-09T17:31:14.055Z,26.97
2022-12-09T17:33:40.798Z,27.30
2022-12-09T17:36:07.737Z,28.60
2022-12-09T17:38:34.627Z,26.60
2022-12-09T17:41:09.473Z,25.73
2022-12-09T17:43:37.052Z,26.43
2022-12-09T17:46:05.771Z,27.20
2022-12-09T17:48:33.662Z,27.80
2022-12-09T17:51:08.655Z,30.33
2022-12-09T17:53:36.929Z,26.83
2022-12-09T17:56:14.184Z,24.03
2022-12-09T17:58:41.498Z,29.63
2022-12-09T18:01:18.408Z,29.10
2022-12-09T18:03:56.188Z,29.27
2022-12-09T18:06:25.867Z,29.33
2022-12-09T18:08:55.104Z,29.20
2022-12-09T18:11:22.828Z,28.30
2022-12-09T18:13:49.449Z,28.30
2022-12-09T18:16:16.372Z,29.87
2022-12-09T18:18:44.567Z,28.90
2022-12-09T18:21:15.557Z,27.10
2022-12-09T18:23:43.140Z,26.42
2022-12-09T18:26:14.859Z,30.93
2022-12-09T18:28:42.083Z,31.13
2022-12-09T18:31:13.649Z,34.43
2022-12-09T18:33:41.363Z,31.48
2022-12-09T18:36:16.763Z,34.70
2022-12-09T18:38:43.540Z,32.07
2022-12-09T18:41:12.236Z,31.30
2022-12-09T18:43:40.993Z,33.87
2022-12-09T18:46:11.096Z,30.03
2022-12-09T18:48:38.698Z,28.03
2022-12-09T18:51:08.606Z,30.73
2022-12-09T18:53:35.224Z,31.50
2022-12-09T18:56:05.195Z,28.43
2022-12-09T18:59:04.104Z,27.93
2022-12-09T19:01:30.007Z,30.17
2022-12-09T19:04:00.486Z,29.73
2022-12-09T19:06:28.512Z,30.63
2022-12-09T19:09:00.652Z,30.13
2022-12-09T19:11:29.430Z,29.60
2022-12-09T19:13:56.649Z,29.87
2022-12-09T19:16:24.200Z,27.80
2022-12-09T19:18:52.405Z,25.00
2022-12-09T19:21:21.707Z,26.87
2022-12-09T19:23:48.416Z,27.30
2022-12-09T19:26:16.065Z,27.97
2022-12-09T19:29:14.719Z,29.80
2022-12-09T19:31:55.797Z,29.13
2022-12-09T19:34:28.272Z,27.53
2022-12-09T19:36:57.912Z,28.00
2022-12-09T19:39:33.198Z,29.07
2022-12-09T19:42:01.163Z,28.97
2022-12-09T19:44:59.508Z,26.87
2022-12-09T19:47:15.183Z,29.57
2022-12-09T19:49:44.585Z,27.50
2022-12-09T19:52:13.892Z,30.20
2022-12-09T19:54:40.288Z,29.20
2022-12-09T19:57:06.899Z,35.30
2022-12-09T19:59:38.138Z,32.70
2022-12-09T20:02:07.856Z,33.03
2022-12-09T20:04:51.845Z,29.23
2022-12-09T20:07:25.562Z,28.70
2022-12-09T20:10:01.026Z,28.03
2022-12-09T20:12:27.515Z,26.53
2022-12-09T20:14:53.942Z,33.80
2022-12-09T20:17:20.275Z,33.90
2022-12-09T20:19:46.874Z,32.67
2022-12-09T20:22:15.851Z,28.33
2022-12-09T20:24:44.411Z,33.00
2022-12-09T20:27:11.889Z,31.63
2022-12-09T20:29:39.674Z,29.80
2022-12-09T20:32:08.283Z,28.87
2022-12-09T20:34:39.449Z,28.20
2022-12-09T20:37:06.222Z,28.27
2022-12-09T20:39:33.277Z,31.97
2022-12-09T20:42:02.198Z,29.03
2022-12-09T20:44:41.145Z,26.10
2022-12-09T20:47:30.993Z,28.67
2022-12-09T20:49:57.394Z,25.60
2022-12-09T20:52:31.908Z,28.77
2022-12-09T20:54:59.579Z,30.10
2022-12-09T20:58:01.285Z,32.47
2022-12-09T21:00:31.065Z,34.40
2022-12-09T21:03:01.955Z,31.60
2022-12-09T21:05:28.872Z,28.87
2022-12-09T21:08:05.640Z,30.27
2022-12-09T21:10:38.160Z,31.07
2022-12-09T21:13:08.900Z,32.00
2022-12-09T21:15:37.762Z,30.63
2022-12-09T21:18:04.427Z,30.77
2022-12-09T21:20:30.901Z,34.00
2022-12-09T21:23:31.897Z,35.20
2022-12-09T21:25:48.773Z,32.67
2022-12-09T21:28:15.480Z,31.13
2022-12-09T21:30:44.000Z,29.63
2022-12-09T21:33:18.164Z,26.53
2022-12-09T21:35:47.856Z,26.43
2022-12-09T21:38:16.108Z,27.80
2022-12-09T21:40:45.375Z,29.20
2022-12-09T21:43:30.140Z,30.83
2022-12-09T21:46:02.376Z,29.33
2022-12-09T21:48:30.219Z,30.15
2022-12-09T21:51:05.925Z,30.67
2022-12-09T21:53:32.786Z,27.13
2022-12-09T21:56:24.542Z,28.90
2022-12-09T21:58:56.133Z,28.10
2022-12-09T22:01:26.931Z,30.00
2022-12-09T22:03:57.925Z,25.57
2022-12-09T22:06:24.852Z,25.10
2022-12-09T22:08:51.633Z,28.60
2022-12-09T22:11:31.346Z,24.37
2022-12-09T22:14:04.586Z,29.33
2022-12-09T22:16:43.008Z,25.80
2022-12-09T22:19:15.198Z,26.97
2022-12-09T22:21:41.995Z,27.10
2022-12-09T22:24:11.333Z,27.53
2022-12-09T22:26:37.860Z,24.40
2022-12-09T22:29:06.195Z,23.23
2022-12-09T22:31:37.087Z,24.70
2022-12-09T22:34:07.980Z,26.03
2022-12-09T22:36:39.231Z,28.23
2022-12-09T22:39:07.293Z,28.90
2022-12-09T22:41:34.719Z,28.73
2022-12-09T22:44:01.938Z,26.70
2022-12-09T22:46:30.968Z,27.50
2022-12-09T22:49:02.281Z,25.40
2022-12-09T22:51:34.409Z,28.37
2022-12-09T22:54:02.869Z,28.00
2022-12-09T22:56:30.556Z,28.30
2022-12-09T22:58:59.934Z,26.20
2022-12-09T23:01:29.391Z,29.00
2022-12-09T23:04:08.028Z,27.10
2022-12-09T23:09:22.996Z,27.73
2022-12-09T23:11:57.834Z,27.73
2022-12-09T23:14:25.952Z,27.47
2022-12-09T23:16:52.300Z,27.70
2022-12-09T23:19:19.443Z,27.40
2022-12-09T23:21:50.107Z,27.50
2022-12-09T23:24:24.726Z,29.23
2022-12-09T23:27:04.067Z,27.93
2022-12-09T23:29:30.788Z,27.70
2022-12-09T23:31:57.539Z,30.23
2022-12-09T23:34:23.971Z,28.13
2022-12-09T23:36:53.274Z,31.53
2022-12-09T23:39:19.880Z,28.27
2022-12-09T23:41:49.847Z,28.13
2022-12-09T23:44:21.431Z,28.33
2022-12-09T23:46:48.157Z,26.40
2022-12-09T23:49:15.181Z,27.87
2022-12-09T23:51:46.162Z,29.57
2022-12-09T23:54:14.603Z,30.77
2022-12-09T23:56:44.154Z,28.70
2022-12-09T23:59:13.552Z,29.30
